createdAt,value
2019-06-01T00:00:58.011Z,78.10
2019-06-01T00:03:27.387Z,78.20
2019-06-01T00:05:56.874Z,78.40
2019-06-01T00:08:26.245Z,78.70
2019-06-01T00:10:55.654Z,78.60
2019-06-01T00:13:25.075Z,78.70
2019-06-01T00:15:54.446Z,78.90
2019-06-01T00:18:23.935Z,79.20
2019-06-01T00:20:54.790Z,79.90
2019-06-01T00:23:24.455Z,79.20
2019-06-01T00:25:53.866Z,79.30
2019-06-01T00:28:23.450Z,79.70
2019-06-01T00:30:52.897Z,80.00
2019-06-01T00:33:23.050Z,80.00
2019-06-01T00:35:52.483Z,80.10
2019-06-01T00:38:21.865Z,80.20
2019-06-01T00:40:52.042Z,80.20
2019-06-01T00:43:21.576Z,80.30
2019-06-01T00:45:51.030Z,80.50
2019-06-01T00:48:20.535Z,80.50
2019-06-01T00:50:51.008Z,80.70
2019-06-01T00:53:20.474Z,81.00
2019-06-01T00:55:51.823Z,81.20
2019-06-01T00:58:21.226Z,81.50
2019-06-01T01:00:51.989Z,81.80
2019-06-01T01:03:22.917Z,81.90
2019-06-01T01:05:52.727Z,82.70
2019-06-01T01:08:22.207Z,83.00
2019-06-01T01:10:52.998Z,83.20
2019-06-01T01:13:24.590Z,83.60
2019-06-01T01:15:54.091Z,83.70
2019-06-01T01:18:23.546Z,84.00
2019-06-01T01:20:54.757Z,83.90
2019-06-01T01:23:24.192Z,84.20
2019-06-01T01:25:54.566Z,84.50
2019-06-01T01:28:25.313Z,84.70
2019-06-01T01:31:06.534Z,85.10
2019-06-01T01:33:27.642Z,85.40
2019-06-01T01:35:58.093Z,85.60
2019-06-01T01:38:27.600Z,85.60
2019-06-01T01:40:59.235Z,86.00
2019-06-01T01:43:28.239Z,85.90
2019-06-01T01:45:58.973Z,86.30
2019-06-01T01:48:29.763Z,86.50
2019-06-01T01:50:59.190Z,86.60
2019-06-01T01:53:28.765Z,86.70
2019-06-01T01:55:59.062Z,86.70
2019-06-01T01:58:28.518Z,86.50
2019-06-01T02:00:58.561Z,87.20
2019-06-01T02:03:29.254Z,87.30
2019-06-01T02:05:59.965Z,87.40
2019-06-01T02:08:30.550Z,87.90
2019-06-01T02:10:59.868Z,88.10
2019-06-01T02:13:29.260Z,88.10
2019-06-01T02:16:00.402Z,89.20
2019-06-01T02:18:29.796Z,88.60
2019-06-01T02:21:00.389Z,88.80
2019-06-01T02:23:29.980Z,89.90
2019-06-01T02:25:59.464Z,90.10
2019-06-01T02:28:29.019Z,90.20
2019-06-01T02:30:59.765Z,90.20
2019-06-01T02:33:29.595Z,90.40
2019-06-01T02:36:00.614Z,90.50
2019-06-01T02:38:30.718Z,90.90
2019-06-01T02:41:01.219Z,91.00
2019-06-01T02:43:50.762Z,91.20
2019-06-01T02:46:20.250Z,91.30
2019-06-01T02:48:49.679Z,91.40
2019-06-01T02:51:20.412Z,91.50
2019-06-01T02:53:49.745Z,91.70
2019-06-01T02:56:19.249Z,92.00
2019-06-01T02:58:49.049Z,92.30
2019-06-01T03:01:56.675Z,92.50
2019-06-01T03:04:16.162Z,92.70
2019-06-01T03:06:47.604Z,93.20
2019-06-01T03:09:20.081Z,93.50
2019-06-01T03:12:10.137Z,93.50
2019-06-01T03:14:42.071Z,93.60
2019-06-01T03:17:14.835Z,93.80
2019-06-01T03:19:46.662Z,93.80
2019-06-01T03:22:17.952Z,94.00
2019-06-01T03:24:49.559Z,94.40
2019-06-01T03:27:21.886Z,94.10
2019-06-01T03:29:56.661Z,94.60
2019-06-01T03:32:35.915Z,94.90
2019-06-01T03:34:57.211Z,95.10
2019-06-01T03:37:29.195Z,95.30
2019-06-01T03:39:59.117Z,95.40
2019-06-01T03:42:28.490Z,95.80
2019-06-01T03:44:58.262Z,96.40
2019-06-01T03:47:27.661Z,96.90
2019-06-01T03:49:57.054Z,97.00
2019-06-01T03:52:26.459Z,97.00
2019-06-01T03:54:55.826Z,97.30
2019-06-01T03:57:25.217Z,97.30
2019-06-01T03:59:54.678Z,97.30
2019-06-01T04:02:32.743Z,97.70
2019-06-01T04:04:56.292Z,97.90
2019-06-01T04:07:27.210Z,98.00
2019-06-01T04:09:56.596Z,98.00
2019-06-01T04:12:25.970Z,98.00
2019-06-01T04:14:55.503Z,98.70
2019-06-01T04:17:24.934Z,98.50
2019-06-01T04:19:54.283Z,98.60
2019-06-01T04:22:25.042Z,98.80
2019-06-01T04:25:14.879Z,99.00
2019-06-01T04:27:44.373Z,98.80
2019-06-01T04:30:14.028Z,98.40
2019-06-01T04:32:49.796Z,98.00
2019-06-01T04:35:14.602Z,97.40
2019-06-01T04:37:45.270Z,96.50
2019-06-01T04:40:15.107Z,95.60
2019-06-01T04:42:44.948Z,94.80
2019-06-01T04:45:14.449Z,94.00
2019-06-01T04:47:43.938Z,93.10
2019-06-01T04:50:14.797Z,92.20
2019-06-01T04:52:44.286Z,91.90
2019-06-01T04:55:15.053Z,91.70
2019-06-01T04:57:46.275Z,91.00
2019-06-01T05:00:25.687Z,90.40
2019-06-01T05:02:47.203Z,89.80
2019-06-01T05:05:18.651Z,89.10
2019-06-01T05:07:47.992Z,88.10
2019-06-01T05:10:17.459Z,86.20
2019-06-01T05:12:48.347Z,86.10
2019-06-01T05:15:19.228Z,84.80
2019-06-01T05:17:48.765Z,82.80
2019-06-01T05:20:18.306Z,81.90
2019-06-01T05:22:47.721Z,80.50
2019-06-01T05:25:17.252Z,79.00
2019-06-01T05:27:48.649Z,76.90
2019-06-01T05:30:18.607Z,75.90
2019-06-01T05:32:48.083Z,74.60
2019-06-01T05:35:18.019Z,73.80
2019-06-01T05:37:47.565Z,72.10
2019-06-01T05:40:17.220Z,71.50
2019-06-01T05:42:48.028Z,71.90
2019-06-01T05:45:19.182Z,71.90
2019-06-01T05:47:50.066Z,71.00
2019-06-01T05:50:22.736Z,69.70
2019-06-01T05:52:52.316Z,70.00
2019-06-01T05:55:22.978Z,69.80
2019-06-01T05:57:53.716Z,71.00
2019-06-01T06:00:44.789Z,69.10
2019-06-01T06:03:16.262Z,67.80
2019-06-01T06:05:45.388Z,66.40
2019-06-01T06:08:16.063Z,65.20
2019-06-01T06:10:45.791Z,64.80
2019-06-01T06:13:15.375Z,64.90
2019-06-01T06:15:46.104Z,63.20
2019-06-01T06:18:15.800Z,63.20
2019-06-01T06:20:45.338Z,62.80
2019-06-01T06:23:14.664Z,62.70
2019-06-01T06:25:44.171Z,62.80
2019-06-01T06:28:14.563Z,62.60
2019-06-01T06:30:44.058Z,62.80
2019-06-01T06:33:13.457Z,61.50
2019-06-01T06:35:42.901Z,59.80
2019-06-01T06:38:13.403Z,59.30
2019-06-01T06:40:43.075Z,58.30
2019-06-01T06:43:22.416Z,57.90
2019-06-01T06:45:44.071Z,56.90
2019-06-01T06:48:14.887Z,55.80
2019-06-01T06:50:44.599Z,55.20
2019-06-01T06:53:25.414Z,53.90
2019-06-01T06:55:45.170Z,54.50
2019-06-01T06:58:14.531Z,54.80
2019-06-01T07:00:43.893Z,53.90
2019-06-01T07:03:13.314Z,53.70
2019-06-01T07:05:42.822Z,52.80
2019-06-01T07:08:12.272Z,53.10
2019-06-01T07:10:41.749Z,52.00
2019-06-01T07:13:11.114Z,50.20
2019-06-01T07:15:40.519Z,49.30
2019-06-01T07:18:09.987Z,49.50
2019-06-01T07:20:39.414Z,50.00
2019-06-01T07:23:08.754Z,50.10
2019-06-01T07:25:38.240Z,51.20
2019-06-01T07:28:07.720Z,52.90
2019-06-01T07:30:49.674Z,54.80
2019-06-01T07:33:08.404Z,56.10
2019-06-01T07:35:37.841Z,57.00
2019-06-01T07:38:07.215Z,57.70
2019-06-01T07:40:36.639Z,58.90
2019-06-01T07:43:06.041Z,59.60
2019-06-01T07:45:35.955Z,59.60
2019-06-01T07:48:05.498Z,58.90
2019-06-01T07:50:34.842Z,58.00
2019-06-01T07:53:04.211Z,56.80
2019-06-01T07:55:33.878Z,55.90
2019-06-01T07:58:03.324Z,55.50
2019-06-01T08:00:34.162Z,55.60
2019-06-01T08:03:04.015Z,55.90
2019-06-01T08:05:33.474Z,55.80
2019-06-01T08:08:02.935Z,56.10
2019-06-01T08:10:32.427Z,55.50
2019-06-01T08:13:01.914Z,55.50
2019-06-01T08:15:31.869Z,56.20
2019-06-01T08:18:01.471Z,56.30
2019-06-01T08:20:32.147Z,57.10
2019-06-01T08:23:03.037Z,57.70
2019-06-01T08:25:33.730Z,58.30
2019-06-01T08:30:43.793Z,59.90
2019-06-01T08:33:13.232Z,60.40
2019-06-01T08:35:45.303Z,60.80
2019-06-01T08:38:14.747Z,60.10
2019-06-01T08:40:44.144Z,59.90
2019-06-01T08:43:13.696Z,59.40
2019-06-01T08:45:43.534Z,59.00
2019-06-01T08:48:13.537Z,59.30
2019-06-01T08:50:46.021Z,59.70
2019-06-01T08:53:15.299Z,59.50
2019-06-01T08:55:44.650Z,59.40
2019-06-01T08:58:14.080Z,59.60
2019-06-01T09:00:43.487Z,59.40
2019-06-01T09:03:12.910Z,59.40
2019-06-01T09:05:42.329Z,59.70
2019-06-01T09:08:11.683Z,59.20
2019-06-01T09:10:43.757Z,59.10
2019-06-01T09:13:13.129Z,59.20
2019-06-01T09:15:42.594Z,59.30
2019-06-01T09:18:11.939Z,58.50
2019-06-01T09:20:43.630Z,57.80
2019-06-01T09:23:13.078Z,57.40
2019-06-01T09:25:42.507Z,57.60
2019-06-01T09:28:13.063Z,57.00
2019-06-01T09:30:42.443Z,56.70
2019-06-01T09:33:11.867Z,56.40
2019-06-01T09:35:54.359Z,55.70
2019-06-01T09:38:12.429Z,55.10
2019-06-01T09:40:43.115Z,54.60
2019-06-01T09:43:12.744Z,54.30
2019-06-01T09:45:42.295Z,54.60
2019-06-01T09:48:11.782Z,55.10
2019-06-01T09:50:41.923Z,55.70
2019-06-01T09:53:11.335Z,56.30
2019-06-01T09:55:40.776Z,57.20
2019-06-01T09:58:10.250Z,58.30
2019-06-01T10:00:43.204Z,59.20
2019-06-01T10:03:12.479Z,59.80
2019-06-01T10:05:41.896Z,60.10
2019-06-01T10:08:11.344Z,60.70
2019-06-01T10:10:40.673Z,61.90
2019-06-01T10:13:10.067Z,62.80
2019-06-01T10:15:39.757Z,63.90
2019-06-01T10:18:09.165Z,64.80
2019-06-01T10:20:39.197Z,65.30
2019-06-01T10:23:08.807Z,65.90
2019-06-01T10:25:38.631Z,66.30
2019-06-01T10:28:08.145Z,66.20
2019-06-01T10:30:37.928Z,66.40
2019-06-01T10:33:07.597Z,66.70
2019-06-01T10:35:37.011Z,66.90
2019-06-01T10:38:07.553Z,67.10
2019-06-01T10:40:39.315Z,67.40
2019-06-01T10:43:09.212Z,67.10
2019-06-01T10:45:39.878Z,68.10
2019-06-01T10:48:09.349Z,68.50
2019-06-01T10:50:40.476Z,68.60
2019-06-01T10:53:10.335Z,68.80
2019-06-01T10:55:40.326Z,69.60
2019-06-01T10:58:09.828Z,69.50
2019-06-01T11:00:46.686Z,69.70
2019-06-01T11:03:10.342Z,70.00
2019-06-01T11:05:40.521Z,70.30
2019-06-01T11:08:10.273Z,70.40
2019-06-01T11:10:40.947Z,69.60
2019-06-01T11:13:10.453Z,68.90
2019-06-01T11:15:41.193Z,68.20
2019-06-01T11:18:10.577Z,68.20
2019-06-01T11:20:39.953Z,68.50
2019-06-01T11:23:09.414Z,68.90
2019-06-01T11:25:39.624Z,69.60
2019-06-01T11:28:09.156Z,70.20
2019-06-01T11:30:39.851Z,70.30
2019-06-01T11:33:09.534Z,70.20
2019-06-01T11:35:39.177Z,70.20
2019-06-01T11:38:08.747Z,69.90
2019-06-01T11:40:38.628Z,69.60
2019-06-01T11:43:08.016Z,69.50
2019-06-01T11:45:38.740Z,69.30
2019-06-01T11:48:08.237Z,69.30
2019-06-01T11:50:38.728Z,68.90
2019-06-01T11:53:08.466Z,68.50
2019-06-01T11:55:39.227Z,68.40
2019-06-01T11:58:08.710Z,68.00
2019-06-01T12:00:39.275Z,67.70
2019-06-01T12:03:08.994Z,67.60
2019-06-01T12:05:39.863Z,67.40
2019-06-01T12:08:09.415Z,66.90
2019-06-01T12:10:39.013Z,66.90
2019-06-01T12:13:08.570Z,67.00
2019-06-01T12:15:38.463Z,67.20
2019-06-01T12:18:07.947Z,67.30
2019-06-01T12:20:38.542Z,67.40
2019-06-01T12:23:08.407Z,67.30
2019-06-01T12:25:38.212Z,67.00
2019-06-01T12:28:07.805Z,66.70
2019-06-01T12:30:37.495Z,66.40
2019-06-01T12:33:07.115Z,66.40
2019-06-01T12:35:37.796Z,66.30
2019-06-01T12:38:07.435Z,66.30
2019-06-01T12:40:36.899Z,66.40
2019-06-01T12:43:06.222Z,66.40
2019-06-01T12:45:35.692Z,66.30
2019-06-01T12:48:05.273Z,66.40
2019-06-01T12:50:34.653Z,66.40
2019-06-01T12:53:04.090Z,66.70
2019-06-01T12:55:33.437Z,67.00
2019-06-01T12:58:02.967Z,67.10
2019-06-01T13:00:32.383Z,67.20
2019-06-01T13:03:07.440Z,67.30
2019-06-01T13:05:32.925Z,67.30
2019-06-01T13:08:03.135Z,67.30
2019-06-01T13:10:32.617Z,67.20
2019-06-01T13:13:02.057Z,67.40
2019-06-01T13:15:31.811Z,67.30
2019-06-01T13:18:01.254Z,67.20
2019-06-01T13:20:31.840Z,67.80
2019-06-01T13:23:01.334Z,66.90
2019-06-01T13:25:30.765Z,66.80
2019-06-01T13:28:00.131Z,66.90
2019-06-01T13:30:29.536Z,67.00
2019-06-01T13:32:59.083Z,67.10
2019-06-01T13:35:28.503Z,67.20
2019-06-01T13:38:10.475Z,67.40
2019-06-01T13:40:28.946Z,67.40
2019-06-01T13:42:58.348Z,67.50
2019-06-01T13:45:27.895Z,67.60
2019-06-01T13:47:57.275Z,67.50
2019-06-01T13:50:26.851Z,67.60
2019-06-01T13:52:56.338Z,67.80
2019-06-01T13:55:25.753Z,68.10
2019-06-01T13:57:56.318Z,68.40
2019-06-01T14:00:30.687Z,68.40
2019-06-01T14:02:57.744Z,68.80
2019-06-01T14:05:27.442Z,69.40
2019-06-01T14:07:57.172Z,69.70
2019-06-01T14:10:26.647Z,70.20
2019-06-01T14:12:55.975Z,71.00
2019-06-01T14:15:25.367Z,70.40
2019-06-01T14:17:54.772Z,70.60
2019-06-01T14:20:24.185Z,71.30
2019-06-01T14:22:54.088Z,70.70
2019-06-01T14:25:23.708Z,70.70
2019-06-01T14:27:54.330Z,70.30
2019-06-01T14:30:24.272Z,70.20
2019-06-01T14:32:54.435Z,70.30
2019-06-01T14:35:23.956Z,70.20
2019-06-01T14:37:55.142Z,70.00
2019-06-01T14:40:24.802Z,69.30
2019-06-01T14:42:55.746Z,69.60
2019-06-01T14:45:25.690Z,70.00
2019-06-01T14:47:55.591Z,70.30
2019-06-01T14:50:25.097Z,70.40
2019-06-01T14:52:55.650Z,70.40
2019-06-01T14:55:26.971Z,70.90
2019-06-01T14:57:56.363Z,71.00
2019-06-01T15:00:26.111Z,71.20
2019-06-01T15:02:56.362Z,71.20
2019-06-01T15:05:26.037Z,71.20
2019-06-01T15:07:57.045Z,71.40
2019-06-01T15:10:26.705Z,71.20
2019-06-01T15:13:00.849Z,71.10
2019-06-01T15:15:27.511Z,71.30
2019-06-01T15:17:57.574Z,71.40
2019-06-01T15:20:27.075Z,71.10
2019-06-01T15:22:56.424Z,71.00
2019-06-01T15:25:25.776Z,70.90
2019-06-01T15:27:55.242Z,70.50
2019-06-01T15:30:25.205Z,70.70
2019-06-01T15:32:54.661Z,70.90
2019-06-01T15:35:24.126Z,70.80
2019-06-01T15:37:57.170Z,70.90
2019-06-01T15:40:24.688Z,71.50
2019-06-01T15:42:55.164Z,72.20
2019-06-01T15:45:25.038Z,72.50
2019-06-01T15:47:55.560Z,72.90
2019-06-01T15:50:25.073Z,73.20
2019-06-01T15:52:54.984Z,73.50
2019-06-01T15:55:24.647Z,73.00
2019-06-01T15:57:54.290Z,72.70
2019-06-01T16:00:24.557Z,72.50
2019-06-01T16:02:54.789Z,71.40
2019-06-01T16:05:24.812Z,71.50
2019-06-01T16:07:55.084Z,70.00
2019-06-01T16:10:24.627Z,69.40
2019-06-01T16:12:55.247Z,69.70
2019-06-01T16:15:24.876Z,66.80
2019-06-01T16:17:54.279Z,64.80
2019-06-01T16:20:23.637Z,64.50
2019-06-01T16:22:53.923Z,64.00
2019-06-01T16:25:23.287Z,63.60
2019-06-01T16:27:52.677Z,63.80
2019-06-01T16:30:22.089Z,64.10
2019-06-01T16:32:51.947Z,64.50
2019-06-01T16:35:21.366Z,65.80
2019-06-01T16:37:52.034Z,65.60
2019-06-01T16:40:21.561Z,66.70
2019-06-01T16:42:51.046Z,67.30
2019-06-01T16:45:20.427Z,67.90
2019-06-01T16:47:50.985Z,68.20
2019-06-01T16:50:20.566Z,68.40
2019-06-01T16:52:50.019Z,68.20
2019-06-01T16:55:21.356Z,68.20
2019-06-01T16:57:50.968Z,67.90
2019-06-01T17:00:24.319Z,67.70
2019-06-01T17:02:56.643Z,67.60
2019-06-01T17:05:26.392Z,67.60
2019-06-01T17:07:56.631Z,67.50
2019-06-01T17:10:26.893Z,67.20
2019-06-01T17:12:56.860Z,67.10
2019-06-01T17:15:26.488Z,67.10
2019-06-01T17:17:57.250Z,67.00
2019-06-01T17:21:01.453Z,66.40
2019-06-01T17:23:33.161Z,66.00
2019-06-01T17:26:02.147Z,65.90
2019-06-01T17:28:31.836Z,65.30
2019-06-01T17:31:02.313Z,65.30
2019-06-01T17:33:32.897Z,65.40
2019-06-01T17:36:02.806Z,65.20
2019-06-01T17:38:34.048Z,64.70
2019-06-01T17:41:04.254Z,64.60
2019-06-01T17:43:34.392Z,64.30
2019-06-01T17:46:05.324Z,64.10
2019-06-01T17:48:34.859Z,64.00
2019-06-01T17:51:04.717Z,63.70
2019-06-01T17:53:34.106Z,62.50
2019-06-01T17:56:03.951Z,62.60
2019-06-01T17:58:33.542Z,62.80
2019-06-01T18:01:04.243Z,62.60
2019-06-01T18:03:34.127Z,62.80
2019-06-01T18:06:03.738Z,63.00
2019-06-01T18:08:33.224Z,62.90
2019-06-01T18:11:03.863Z,62.70
2019-06-01T18:13:33.445Z,62.90
2019-06-01T18:16:03.381Z,62.90
2019-06-01T18:18:33.965Z,63.00
2019-06-01T18:21:04.171Z,63.40
2019-06-01T18:23:34.737Z,63.60
2019-06-01T18:26:05.091Z,63.90
2019-06-01T18:28:34.630Z,64.20
2019-06-01T18:31:04.557Z,64.40
2019-06-01T18:33:36.650Z,64.60
2019-06-01T18:36:07.445Z,64.80
2019-06-01T18:38:37.050Z,65.00
2019-06-01T18:41:14.614Z,65.10
2019-06-01T18:43:37.713Z,65.20
2019-06-01T18:46:08.091Z,65.40
2019-06-01T18:48:37.621Z,65.50
2019-06-01T18:51:08.150Z,65.70
2019-06-01T18:53:37.649Z,65.70
2019-06-01T18:56:08.200Z,65.90
2019-06-01T18:58:38.018Z,66.00
2019-06-01T19:01:08.420Z,66.20
2019-06-01T19:03:37.958Z,66.30
2019-06-01T19:06:09.560Z,66.40
2019-06-01T19:08:39.023Z,66.50
2019-06-01T19:11:18.479Z,66.70
2019-06-01T19:13:51.540Z,67.30
2019-06-01T19:16:20.962Z,68.00
2019-06-01T19:18:50.335Z,68.70
2019-06-01T19:21:19.735Z,69.50
2019-06-01T19:23:49.223Z,70.70
2019-06-01T19:26:18.705Z,71.90
2019-06-01T19:28:48.150Z,73.10
2019-06-01T19:31:36.704Z,73.60
2019-06-01T19:34:06.843Z,74.40
2019-06-01T19:36:38.632Z,75.50
2019-06-01T19:39:28.834Z,75.60
2019-06-01T19:41:58.191Z,76.10
2019-06-01T19:44:27.594Z,76.70
2019-06-01T19:46:58.103Z,76.80
2019-06-01T19:49:27.528Z,76.90
2019-06-01T19:51:56.907Z,77.20
2019-06-01T19:54:26.392Z,77.90
2019-06-01T19:56:55.826Z,77.90
2019-06-01T19:59:25.151Z,77.90
2019-06-01T20:01:54.621Z,78.20
2019-06-01T20:04:24.130Z,78.30
2019-06-01T20:06:53.459Z,78.60
2019-06-01T20:09:24.069Z,78.90
2019-06-01T20:12:02.005Z,78.80
2019-06-01T20:14:26.718Z,78.90
2019-06-01T20:16:56.213Z,79.00
2019-06-01T20:19:25.747Z,79.20
2019-06-01T20:21:55.264Z,79.70
2019-06-01T20:24:25.873Z,79.70
2019-06-01T20:26:55.429Z,79.90
2019-06-01T20:29:25.137Z,79.80
2019-06-01T20:31:56.278Z,80.00
2019-06-01T20:34:25.681Z,80.10
2019-06-01T20:36:55.262Z,80.00
2019-06-01T20:39:24.740Z,80.10
2019-06-01T20:41:54.535Z,80.40
2019-06-01T20:44:23.994Z,80.70
2019-06-01T20:46:53.400Z,80.80
2019-06-01T20:49:22.774Z,81.30
2019-06-01T20:51:52.178Z,81.30
2019-06-01T20:54:23.470Z,81.30
2019-06-01T20:56:52.905Z,81.30
2019-06-01T20:59:23.472Z,81.30
2019-06-01T21:01:55.000Z,81.50
2019-06-01T21:04:24.408Z,81.70
2019-06-01T21:06:53.915Z,81.70
2019-06-01T21:09:24.359Z,81.90
2019-06-01T21:11:55.695Z,81.80
2019-06-01T21:14:25.612Z,81.90
2019-06-01T21:16:55.405Z,82.20
2019-06-01T21:19:26.659Z,82.50
2019-06-01T21:21:56.115Z,83.00
2019-06-01T21:24:25.627Z,83.10
2019-06-01T21:26:55.155Z,83.20
2019-06-01T21:29:25.152Z,83.40
2019-06-01T21:31:54.744Z,84.10
2019-06-01T21:34:25.586Z,86.10
2019-06-01T21:36:56.261Z,86.50
2019-06-01T21:39:25.606Z,87.00
2019-06-01T21:41:55.121Z,86.80
2019-06-01T21:44:25.673Z,87.30
2019-06-01T21:46:56.307Z,87.10
2019-06-01T21:49:25.923Z,86.60
2019-06-01T21:51:55.391Z,88.60
2019-06-01T21:54:24.806Z,88.40
2019-06-01T21:56:54.288Z,88.30
2019-06-01T21:59:24.916Z,88.30
2019-06-01T22:01:54.460Z,88.40
2019-06-01T22:04:25.347Z,88.60
2019-06-01T22:06:54.939Z,88.80
2019-06-01T22:09:25.293Z,89.00
2019-06-01T22:11:54.987Z,89.40
2019-06-01T22:14:26.154Z,89.90
2019-06-01T22:16:55.504Z,90.10
2019-06-01T22:19:25.857Z,91.20
2019-06-01T22:21:55.499Z,91.00
2019-06-01T22:24:26.542Z,91.40
2019-06-01T22:26:57.325Z,91.30
2019-06-01T22:29:26.711Z,91.30
2019-06-01T22:31:56.205Z,91.40
2019-06-01T22:34:26.860Z,91.50
2019-06-01T22:36:56.754Z,92.00
2019-06-01T22:39:26.933Z,92.00
2019-06-01T22:41:56.503Z,92.50
2019-06-01T22:44:26.218Z,92.50
2019-06-01T22:46:56.961Z,92.90
2019-06-01T22:49:26.856Z,92.70
2019-06-01T22:51:57.539Z,92.80
2019-06-01T22:54:29.256Z,92.80
2019-06-01T22:56:58.947Z,92.80
2019-06-01T22:59:28.718Z,92.70
2019-06-01T23:01:58.427Z,92.70
2019-06-01T23:04:29.183Z,93.00
2019-06-01T23:06:59.132Z,92.90
2019-06-01T23:09:29.708Z,93.20
2019-06-01T23:11:59.199Z,93.60
2019-06-01T23:14:29.495Z,93.50
2019-06-01T23:16:59.167Z,93.40
2019-06-01T23:19:29.835Z,93.40
2019-06-01T23:22:00.464Z,93.40
2019-06-01T23:24:30.317Z,93.40
2019-06-01T23:26:59.862Z,93.50
2019-06-01T23:29:30.229Z,93.90
2019-06-01T23:31:59.798Z,93.80
2019-06-01T23:34:30.966Z,93.80
2019-06-01T23:37:01.601Z,93.80
2019-06-01T23:39:31.035Z,93.90
2019-06-01T23:42:00.423Z,93.80
2019-06-01T23:44:32.486Z,93.70
2019-06-01T23:47:02.050Z,93.70
2019-06-01T23:49:31.423Z,93.80
2019-06-01T23:52:00.875Z,93.70
2019-06-01T23:54:32.447Z,93.80
2019-06-01T23:57:02.158Z,93.90
2019-06-01T23:59:32.514Z,93.90
